aviador You're here:

EICK Decoded Metar

CORK in IRELAND
Report Time2017-11-20 23:00:00
UTC Time2017-11-20 23:06:21
Flight Rules lifr LIFR
Wind240° at 10 kt
W.Decomp.*RWY 25: 10.0 kt HW 0.9 kt LCW
RWY 17: 2.6 kt HW 9.7 kt RCW
W.Rank240° ranks 2
Current wind is above 240° avg. (9.5)
Visibility9000 m
Phenomena:N/A
Clouds:Broken 004 Hf
Ceiling400 ft
Temp12°C (ISA -2)
Dew Point12°C (100% RH)
AAT9.0°C
QNH1012 hPa
Density Alt489 ft
Elevation502 ft
Report Wrong Elevation
Raw Report
METAR EICK 202300Z 24010KT 9000 BKN004 12/12 Q1012 BECMG BKN005=

Extra information for EICK:More info

Metar Taf Metar & Taf Last 4 Metars F.Rules Stats Wind Profile Meteogram Temp Stats Airport Information Weather charts Add Link Nearby VenuesMetar ALERT Operation Metar Decoded Social comments